createdAt,value
2019-03-18T00:01:15.838Z,1.20
2019-03-18T00:04:22.133Z,1.40
2019-03-18T00:07:28.656Z,1.23
2019-03-18T00:10:35.273Z,1.30
2019-03-18T00:13:41.569Z,1.43
2019-03-18T00:16:47.920Z,1.57
2019-03-18T00:19:55.886Z,1.55
2019-03-18T00:23:02.447Z,1.20
2019-03-18T00:26:12.058Z,1.50
2019-03-18T00:29:18.617Z,1.53
2019-03-18T00:32:25.784Z,2.07
2019-03-18T00:35:32.208Z,1.40
2019-03-18T00:38:39.152Z,1.40
2019-03-18T00:41:45.625Z,1.60
2019-03-18T00:44:52.195Z,1.37
2019-03-18T00:48:00.228Z,2.00
2019-03-18T00:51:09.211Z,1.40
2019-03-18T00:54:15.735Z,1.70
2019-03-18T00:57:23.489Z,1.63
2019-03-18T01:00:30.041Z,1.50
2019-03-18T01:03:36.469Z,1.37
2019-03-18T01:06:43.884Z,1.50
2019-03-18T01:09:50.782Z,1.37
2019-03-18T01:12:58.835Z,1.43
2019-03-18T01:16:05.594Z,1.30
2019-03-18T01:19:12.080Z,1.50
2019-03-18T01:22:18.532Z,1.60
2019-03-18T01:25:26.129Z,1.60
2019-03-18T01:28:34.377Z,1.60
2019-03-18T01:31:41.056Z,1.80
2019-03-18T01:34:49.438Z,1.42
2019-03-18T01:37:57.315Z,1.50
2019-03-18T01:41:03.726Z,1.43
2019-03-18T01:44:10.380Z,1.53
2019-03-18T01:47:18.233Z,1.92
2019-03-18T01:50:24.709Z,2.00
2019-03-18T01:53:31.539Z,1.97
2019-03-18T01:56:37.933Z,1.60
2019-03-18T01:59:46.128Z,2.20
2019-03-18T02:02:52.515Z,1.80
2019-03-18T02:05:59.584Z,1.73
2019-03-18T02:09:06.882Z,1.50
2019-03-18T02:12:15.174Z,1.53
2019-03-18T02:15:21.601Z,1.30
2019-03-18T02:18:27.967Z,1.60
2019-03-18T02:21:34.263Z,1.50
2019-03-18T02:24:40.761Z,2.10
2019-03-18T02:27:47.224Z,1.50
2019-03-18T02:30:54.454Z,1.60
2019-03-18T02:34:02.575Z,1.63
2019-03-18T02:37:09.955Z,2.10
2019-03-18T02:40:17.857Z,2.03
2019-03-18T02:43:24.278Z,1.23
2019-03-18T02:46:30.618Z,1.57
2019-03-18T02:49:37.438Z,1.67
2019-03-18T02:52:43.741Z,1.93
2019-03-18T02:55:50.192Z,2.00
2019-03-18T02:58:58.157Z,1.57
2019-03-18T03:02:04.643Z,1.43
2019-03-18T03:05:11.484Z,1.80
2019-03-18T03:08:18.412Z,1.77
2019-03-18T03:11:24.669Z,1.80
2019-03-18T03:14:32.153Z,1.80
2019-03-18T03:17:38.533Z,1.73
2019-03-18T03:20:45.659Z,2.03
2019-03-18T03:23:52.041Z,1.60
2019-03-18T03:26:58.786Z,1.97
2019-03-18T03:30:05.734Z,1.43
2019-03-18T03:33:12.105Z,1.90
2019-03-18T03:36:21.731Z,1.57
2019-03-18T03:39:29.663Z,1.60
2019-03-18T03:42:36.001Z,1.40
2019-03-18T03:45:43.102Z,1.50
2019-03-18T03:48:49.601Z,1.30
2019-03-18T03:51:56.010Z,1.87
2019-03-18T03:55:02.399Z,1.77
2019-03-18T03:58:08.789Z,1.60
2019-03-18T04:01:15.107Z,1.80
2019-03-18T04:04:23.947Z,1.43
2019-03-18T04:07:30.484Z,1.50
2019-03-18T04:10:37.491Z,2.00
2019-03-18T04:13:43.748Z,1.20
2019-03-18T04:17:01.612Z,1.40
2019-03-18T04:20:04.109Z,1.67
2019-03-18T04:23:10.671Z,1.57
2019-03-18T04:26:18.404Z,1.60
2019-03-18T04:29:24.882Z,1.60
2019-03-18T04:32:31.364Z,1.57
2019-03-18T04:35:37.774Z,1.90
2019-03-18T04:38:44.353Z,1.77
2019-03-18T04:41:51.164Z,2.10
2019-03-18T04:44:57.554Z,1.43
2019-03-18T04:48:04.039Z,1.90
2019-03-18T04:51:10.394Z,2.03
2019-03-18T04:54:17.780Z,1.70
2019-03-18T04:57:24.204Z,1.52
2019-03-18T05:00:30.768Z,1.67
2019-03-18T05:03:37.163Z,1.70
2019-03-18T05:06:45.005Z,1.73
2019-03-18T05:09:51.429Z,1.87
2019-03-18T05:12:57.831Z,1.67
2019-03-18T05:16:04.187Z,1.80
2019-03-18T05:19:11.973Z,2.10
2019-03-18T05:22:20.194Z,2.02
2019-03-18T05:25:26.569Z,1.63
2019-03-18T05:28:32.895Z,1.70
2019-03-18T05:31:39.464Z,2.37
2019-03-18T05:34:46.069Z,1.95
2019-03-18T05:37:55.734Z,1.83
2019-03-18T05:41:02.583Z,1.80
2019-03-18T05:44:09.181Z,1.70
2019-03-18T05:47:15.729Z,1.70
2019-03-18T05:50:24.890Z,1.60
2019-03-18T05:53:31.151Z,2.20
2019-03-18T05:56:38.043Z,2.20
2019-03-18T05:59:44.412Z,1.92
2019-03-18T06:02:50.706Z,2.17
2019-03-18T06:05:57.040Z,2.07
2019-03-18T06:09:04.983Z,1.60
2019-03-18T06:12:13.275Z,1.75
2019-03-18T06:15:19.602Z,1.70
2019-03-18T06:18:26.012Z,1.30
2019-03-18T06:21:32.408Z,1.60
2019-03-18T06:24:39.516Z,1.57
2019-03-18T06:27:46.305Z,1.77
2019-03-18T06:30:52.655Z,1.60
2019-03-18T06:33:59.131Z,1.50
2019-03-18T06:37:05.628Z,1.60
2019-03-18T06:40:12.426Z,1.70
2019-03-18T06:43:19.330Z,1.73
2019-03-18T06:46:26.262Z,1.40
2019-03-18T06:49:32.635Z,1.50
2019-03-18T06:52:38.990Z,1.80
2019-03-18T06:55:45.450Z,1.67
2019-03-18T06:58:51.809Z,1.50
2019-03-18T07:01:58.235Z,1.63
2019-03-18T07:05:05.145Z,1.57
2019-03-18T07:08:11.594Z,1.57
2019-03-18T07:11:17.961Z,1.40
2019-03-18T07:14:25.553Z,1.57
2019-03-18T07:17:31.958Z,1.40
2019-03-18T07:20:38.298Z,1.52
2019-03-18T07:23:45.224Z,1.40
2019-03-18T07:26:51.809Z,1.33
2019-03-18T07:29:58.254Z,1.50
2019-03-18T07:33:04.602Z,1.40
2019-03-18T07:36:10.999Z,1.20
2019-03-18T07:39:17.375Z,1.53
2019-03-18T07:42:24.320Z,0.98
2019-03-18T07:45:31.423Z,1.20
2019-03-18T07:48:38.121Z,1.43
2019-03-18T07:51:44.793Z,1.30
2019-03-18T07:54:51.601Z,1.07
2019-03-18T07:57:57.883Z,1.20
2019-03-18T08:01:04.409Z,0.93
2019-03-18T08:04:10.772Z,1.10
2019-03-18T08:07:17.266Z,1.10
2019-03-18T08:10:23.614Z,0.73
2019-03-18T08:13:29.970Z,0.80
2019-03-18T08:16:36.405Z,1.10
2019-03-18T08:19:42.880Z,0.90
2019-03-18T08:22:49.253Z,0.90
2019-03-18T08:25:55.696Z,0.80
2019-03-18T08:29:02.042Z,0.90
2019-03-18T08:32:11.778Z,0.80
2019-03-18T08:35:20.262Z,1.10
2019-03-18T08:38:26.576Z,0.80
2019-03-18T08:41:32.966Z,0.90
2019-03-18T08:44:40.600Z,1.15
2019-03-18T08:47:47.346Z,1.10
2019-03-18T08:50:53.964Z,0.80
2019-03-18T08:54:00.310Z,0.90
2019-03-18T08:57:06.704Z,1.07
2019-03-18T09:00:13.126Z,1.10
2019-03-18T09:03:19.418Z,0.97
2019-03-18T09:06:25.795Z,1.00
2019-03-18T09:09:32.072Z,1.07
2019-03-18T09:12:38.388Z,0.90
2019-03-18T09:15:45.207Z,1.00
2019-03-18T09:18:51.578Z,1.00
2019-03-18T09:21:58.044Z,1.10
2019-03-18T09:25:04.860Z,1.00
2019-03-18T09:28:11.275Z,0.90
2019-03-18T09:31:18.018Z,1.03
2019-03-18T09:34:26.326Z,1.40
2019-03-18T09:37:32.589Z,1.00
2019-03-18T09:40:38.945Z,0.90
2019-03-18T09:43:45.582Z,1.05
2019-03-18T09:46:51.989Z,1.47
2019-03-18T09:49:58.507Z,1.20
2019-03-18T09:53:05.100Z,1.40
2019-03-18T09:56:11.574Z,1.20
2019-03-18T09:59:18.015Z,1.60
2019-03-18T10:02:24.564Z,1.60
2019-03-18T10:05:30.921Z,1.53
2019-03-18T10:08:37.505Z,1.57
2019-03-18T10:11:44.053Z,1.83
2019-03-18T10:14:50.477Z,1.20
2019-03-18T10:17:56.753Z,1.50
2019-03-18T10:21:03.149Z,1.70
2019-03-18T10:24:09.591Z,1.33
2019-03-18T10:27:15.925Z,1.17
2019-03-18T10:30:22.504Z,1.37
2019-03-18T10:33:28.938Z,1.53
2019-03-18T10:36:35.277Z,1.50
2019-03-18T10:39:41.595Z,1.50
2019-03-18T10:42:48.153Z,1.73
2019-03-18T10:45:54.624Z,1.40
2019-03-18T10:49:01.154Z,1.50
2019-03-18T10:52:07.957Z,1.80
2019-03-18T10:55:14.722Z,1.83
2019-03-18T10:58:21.119Z,1.73
2019-03-18T11:01:28.379Z,1.63
2019-03-18T11:04:34.727Z,1.10
2019-03-18T11:07:41.272Z,1.40
2019-03-18T11:10:47.764Z,1.37
2019-03-18T11:13:54.209Z,1.23
2019-03-18T11:17:00.464Z,1.00
2019-03-18T11:20:07.386Z,1.20
2019-03-18T11:23:13.738Z,1.53
2019-03-18T11:26:20.295Z,1.33
2019-03-18T11:29:26.713Z,1.00
2019-03-18T11:32:34.138Z,1.20
2019-03-18T11:35:40.561Z,1.30
2019-03-18T11:38:46.970Z,1.30
2019-03-18T11:41:53.453Z,1.60
2019-03-18T11:44:59.935Z,1.30
2019-03-18T11:48:06.469Z,1.20
2019-03-18T11:51:12.841Z,1.13
2019-03-18T11:54:19.584Z,1.17
2019-03-18T11:57:26.335Z,1.22
2019-03-18T12:00:32.740Z,1.03
2019-03-18T12:03:39.061Z,1.40
2019-03-18T12:06:45.398Z,1.20
2019-03-18T12:09:51.771Z,1.50
2019-03-18T12:12:58.125Z,1.30
2019-03-18T12:16:04.485Z,1.57
2019-03-18T12:19:10.724Z,1.40
2019-03-18T12:22:17.238Z,1.30
2019-03-18T12:25:23.631Z,1.47
2019-03-18T12:28:29.926Z,1.00
2019-03-18T12:31:36.361Z,1.43
2019-03-18T12:34:42.749Z,1.23
2019-03-18T12:37:49.162Z,1.30
2019-03-18T12:40:55.523Z,1.70
2019-03-18T12:44:01.791Z,1.33
2019-03-18T12:47:08.238Z,1.40
2019-03-18T12:50:15.615Z,1.30
2019-03-18T12:53:21.881Z,1.00
2019-03-18T12:56:28.538Z,1.30
2019-03-18T12:59:35.391Z,1.00
2019-03-18T13:02:41.707Z,1.20
2019-03-18T13:05:48.152Z,1.30
2019-03-18T13:08:54.496Z,1.10
2019-03-18T13:12:00.784Z,1.10
2019-03-18T13:15:08.304Z,1.50
2019-03-18T13:18:15.859Z,1.20
2019-03-18T13:21:22.120Z,1.10
2019-03-18T13:24:28.444Z,0.90
2019-03-18T13:27:34.835Z,1.10
2019-03-18T13:30:41.202Z,1.10
2019-03-18T13:33:47.468Z,1.07
2019-03-18T13:36:53.997Z,1.10
2019-03-18T13:40:00.438Z,1.00
2019-03-18T13:43:06.787Z,1.10
2019-03-18T13:46:13.110Z,0.90
2019-03-18T13:49:19.568Z,1.00
2019-03-18T13:52:25.851Z,1.00
2019-03-18T13:55:32.351Z,0.93
2019-03-18T13:58:40.448Z,0.97
2019-03-18T14:01:47.501Z,0.90
2019-03-18T14:04:53.940Z,0.90
2019-03-18T14:08:01.377Z,1.10
2019-03-18T14:11:07.952Z,1.07
2019-03-18T14:14:15.836Z,1.07
2019-03-18T14:17:23.827Z,0.90
2019-03-18T14:20:30.183Z,1.00
2019-03-18T14:23:36.541Z,1.00
2019-03-18T14:26:43.036Z,1.17
2019-03-18T14:29:49.401Z,1.27
2019-03-18T14:32:55.929Z,1.20
2019-03-18T14:36:02.154Z,1.20
2019-03-18T14:39:08.508Z,1.10
2019-03-18T14:42:15.059Z,1.25
2019-03-18T14:45:21.475Z,1.40
2019-03-18T14:48:27.819Z,1.10
2019-03-18T14:51:45.287Z,1.37
2019-03-18T14:54:42.267Z,1.67
2019-03-18T14:57:48.732Z,1.30
2019-03-18T15:00:55.321Z,1.20
2019-03-18T15:04:01.867Z,1.60
2019-03-18T15:07:08.557Z,1.20
2019-03-18T15:10:15.127Z,1.20
2019-03-18T15:13:30.300Z,1.10
2019-03-18T15:16:29.594Z,1.00
2019-03-18T15:19:36.071Z,1.27
2019-03-18T15:22:42.477Z,1.30
2019-03-18T15:25:48.827Z,1.33
2019-03-18T15:28:58.405Z,1.27
2019-03-18T15:32:05.925Z,1.40
2019-03-18T15:35:13.952Z,1.43
2019-03-18T15:38:20.249Z,1.37
2019-03-18T15:41:26.608Z,0.70
2019-03-18T15:44:33.038Z,0.93
2019-03-18T15:47:39.638Z,0.90
2019-03-18T15:50:46.069Z,0.80
2019-03-18T15:53:52.477Z,0.93
2019-03-18T15:57:00.254Z,0.80
2019-03-18T16:00:08.455Z,0.70
2019-03-18T16:03:15.874Z,0.77
2019-03-18T16:06:22.645Z,0.80
2019-03-18T16:09:29.109Z,0.70
2019-03-18T16:12:35.652Z,0.60
2019-03-18T16:15:41.937Z,0.77
2019-03-18T16:18:48.365Z,0.60
2019-03-18T16:21:54.706Z,0.80
2019-03-18T16:25:01.088Z,0.80
2019-03-18T16:28:07.519Z,0.60
2019-03-18T16:31:13.922Z,0.70
2019-03-18T16:34:20.289Z,0.60
2019-03-18T16:37:26.846Z,0.70
2019-03-18T16:40:33.204Z,0.67
2019-03-18T16:43:39.688Z,0.80
2019-03-18T16:46:46.096Z,0.70
2019-03-18T16:49:52.527Z,0.90
2019-03-18T16:52:58.991Z,0.90
2019-03-18T16:56:05.521Z,1.10
2019-03-18T16:59:18.758Z,0.90
2019-03-18T17:02:26.796Z,1.00
2019-03-18T17:05:33.457Z,0.93
2019-03-18T17:08:39.948Z,0.80
2019-03-18T17:11:46.497Z,0.90
2019-03-18T17:14:52.869Z,1.40
2019-03-18T17:17:59.236Z,1.17
2019-03-18T17:21:07.361Z,1.07
2019-03-18T17:24:14.802Z,1.00
2019-03-18T17:27:21.433Z,1.00
2019-03-18T17:30:36.978Z,1.00
2019-03-18T17:33:48.927Z,0.90
2019-03-18T17:37:11.690Z,1.10
2019-03-18T17:40:17.605Z,1.03
2019-03-18T17:43:24.224Z,0.80
2019-03-18T17:46:30.636Z,1.00
2019-03-18T17:49:37.346Z,1.13
2019-03-18T17:52:43.799Z,1.20
2019-03-18T17:55:50.373Z,1.13
2019-03-18T17:58:56.741Z,1.10
2019-03-18T18:02:03.107Z,1.30
2019-03-18T18:05:09.622Z,1.20
2019-03-18T18:08:18.308Z,1.13
2019-03-18T18:11:24.391Z,1.17
2019-03-18T18:14:30.846Z,1.07
2019-03-18T18:17:37.623Z,1.00
2019-03-18T18:20:44.192Z,1.20
2019-03-18T18:23:52.229Z,1.40
2019-03-18T18:26:58.693Z,1.00
2019-03-18T18:30:05.810Z,1.00
2019-03-18T18:33:12.414Z,1.20
2019-03-18T18:36:19.018Z,1.40
2019-03-18T18:39:27.036Z,1.73
2019-03-18T18:42:33.437Z,1.70
2019-03-18T18:45:42.523Z,1.70
2019-03-18T18:48:48.909Z,1.53
2019-03-18T18:51:57.937Z,1.57
2019-03-18T18:55:04.524Z,1.30
2019-03-18T18:58:10.835Z,1.40
2019-03-18T19:01:19.349Z,1.20
2019-03-18T19:04:25.721Z,1.30
2019-03-18T19:07:32.082Z,1.33
2019-03-18T19:10:38.569Z,1.13
2019-03-18T19:13:45.278Z,1.20
2019-03-18T19:16:51.644Z,1.30
2019-03-18T19:19:58.114Z,1.57
2019-03-18T19:23:04.458Z,1.40
2019-03-18T19:26:10.819Z,1.60
2019-03-18T19:29:17.289Z,1.50
2019-03-18T19:32:24.020Z,1.60
2019-03-18T19:35:30.480Z,1.60
2019-03-18T19:38:37.079Z,1.60
2019-03-18T19:41:43.532Z,1.30
2019-03-18T19:44:50.006Z,1.32
2019-03-18T19:47:57.266Z,1.40
2019-03-18T19:51:03.774Z,1.40
2019-03-18T19:54:12.729Z,1.10
2019-03-18T19:57:18.243Z,1.22
2019-03-18T20:00:24.618Z,1.30
2019-03-18T20:03:31.275Z,1.23
2019-03-18T20:06:37.710Z,1.40
2019-03-18T20:09:46.331Z,1.12
2019-03-18T20:12:59.342Z,1.40
2019-03-18T20:16:08.119Z,1.27
2019-03-18T20:19:16.363Z,1.30
2019-03-18T20:22:22.995Z,1.32
2019-03-18T20:25:29.418Z,1.33
2019-03-18T20:28:35.881Z,1.30
2019-03-18T20:31:43.270Z,1.40
2019-03-18T20:34:49.634Z,1.50
2019-03-18T20:37:56.023Z,1.30
2019-03-18T20:41:02.575Z,1.93
2019-03-18T20:44:08.888Z,1.47
2019-03-18T20:47:15.608Z,1.60
2019-03-18T20:50:25.488Z,1.70
2019-03-18T20:53:31.879Z,1.20
2019-03-18T20:56:38.261Z,1.20
2019-03-18T20:59:44.693Z,1.42
2019-03-18T21:02:51.046Z,1.33
2019-03-18T21:05:57.613Z,1.20
2019-03-18T21:09:04.845Z,1.60
2019-03-18T21:12:11.372Z,1.40
2019-03-18T21:15:19.956Z,1.40
2019-03-18T21:18:26.642Z,1.50
2019-03-18T21:21:33.066Z,1.50
2019-03-18T21:24:39.745Z,1.40
2019-03-18T21:27:46.083Z,1.50
2019-03-18T21:30:52.451Z,1.30
2019-03-18T21:33:58.910Z,1.40
2019-03-18T21:37:05.306Z,1.47
2019-03-18T21:40:12.325Z,1.40
2019-03-18T21:43:18.918Z,1.27
2019-03-18T21:46:25.296Z,1.60
2019-03-18T21:49:31.705Z,1.43
2019-03-18T21:52:38.062Z,1.30
2019-03-18T21:55:44.517Z,1.50
2019-03-18T21:58:50.941Z,1.57
2019-03-18T22:01:57.415Z,1.60
2019-03-18T22:05:03.747Z,1.60
2019-03-18T22:08:10.154Z,1.60
2019-03-18T22:11:16.619Z,1.50
2019-03-18T22:14:22.914Z,1.40
2019-03-18T22:17:30.082Z,1.47
2019-03-18T22:20:36.735Z,1.40
2019-03-18T22:23:43.714Z,1.60
2019-03-18T22:26:50.225Z,1.40
2019-03-18T22:29:56.749Z,1.40
2019-03-18T22:33:03.093Z,2.10
2019-03-18T22:36:09.476Z,1.70
2019-03-18T22:39:15.958Z,1.50
2019-03-18T22:42:22.334Z,1.30
2019-03-18T22:45:28.694Z,1.33
2019-03-18T22:48:35.201Z,1.37
2019-03-18T22:51:41.545Z,1.50
2019-03-18T22:54:55.542Z,1.50
2019-03-18T22:57:56.150Z,1.40
2019-03-18T23:01:08.027Z,1.30
2019-03-18T23:04:14.633Z,1.60
2019-03-18T23:07:21.143Z,1.40
2019-03-18T23:10:27.427Z,1.40
2019-03-18T23:13:33.701Z,1.53
2019-03-18T23:16:40.307Z,1.50
2019-03-18T23:19:47.046Z,1.40
2019-03-18T23:22:53.614Z,1.40
2019-03-18T23:26:00.048Z,1.43
2019-03-18T23:29:06.416Z,1.73
2019-03-18T23:32:12.747Z,1.70
2019-03-18T23:35:19.306Z,1.73
2019-03-18T23:38:25.597Z,1.50
2019-03-18T23:41:32.126Z,1.50
2019-03-18T23:44:39.437Z,1.80
2019-03-18T23:47:45.820Z,1.50
2019-03-18T23:50:52.207Z,1.50
2019-03-18T23:53:58.474Z,1.60
2019-03-18T23:57:04.828Z,1.70
